createdAt,value
2018-05-09T00:00:32.575Z,45.10
2018-05-09T00:02:34.090Z,44.90
2018-05-09T00:04:35.554Z,45.68
2018-05-09T00:06:37.312Z,45.48
2018-05-09T00:08:39.021Z,45.20
2018-05-09T00:10:40.524Z,45.48
2018-05-09T00:12:42.100Z,45.97
2018-05-09T00:14:43.627Z,45.94
2018-05-09T00:16:45.188Z,46.45
2018-05-09T00:18:46.638Z,47.31
2018-05-09T00:20:48.179Z,46.81
2018-05-09T00:22:49.703Z,46.52
2018-05-09T00:24:51.420Z,46.81
2018-05-09T00:26:53.088Z,47.00
2018-05-09T00:28:54.535Z,46.33
2018-05-09T00:30:55.961Z,46.62
2018-05-09T00:32:57.470Z,47.77
2018-05-09T00:34:58.936Z,46.33
2018-05-09T00:37:00.445Z,46.91
2018-05-09T00:39:01.908Z,46.62
2018-05-09T00:41:03.329Z,46.42
2018-05-09T00:43:04.756Z,47.39
2018-05-09T00:45:06.184Z,46.71
2018-05-09T00:47:07.610Z,47.67
2018-05-09T00:49:09.199Z,47.85
2018-05-09T00:51:11.054Z,47.36
2018-05-09T00:53:12.992Z,47.56
2018-05-09T00:55:14.672Z,47.46
2018-05-09T00:57:16.361Z,47.65
2018-05-09T00:59:18.078Z,47.46
2018-05-09T01:01:19.840Z,47.75
2018-05-09T01:03:21.645Z,48.43
2018-05-09T01:05:23.349Z,48.23
2018-05-09T01:07:25.205Z,48.61
2018-05-09T01:09:26.887Z,48.81
2018-05-09T01:11:28.713Z,48.43
2018-05-09T01:13:30.370Z,49.10
2018-05-09T01:15:31.856Z,48.81
2018-05-09T01:17:33.358Z,49.10
2018-05-09T01:19:34.783Z,49.00
2018-05-09T01:21:36.209Z,49.10
2018-05-09T01:23:37.760Z,48.81
2018-05-09T01:25:39.367Z,49.17
2018-05-09T01:27:41.053Z,49.87
2018-05-09T01:29:42.846Z,49.46
2018-05-09T01:31:44.553Z,49.84
2018-05-09T01:33:46.521Z,49.46
2018-05-09T01:35:48.344Z,49.36
2018-05-09T01:37:50.251Z,49.55
2018-05-09T01:39:52.142Z,50.61
2018-05-09T01:41:53.773Z,50.81
2018-05-09T01:43:55.494Z,50.81
2018-05-09T01:45:57.149Z,51.45
2018-05-09T01:47:59.021Z,51.48
2018-05-09T01:50:00.774Z,51.74
2018-05-09T01:52:02.259Z,52.51
2018-05-09T01:54:03.819Z,52.32
2018-05-09T01:56:05.300Z,52.42
2018-05-09T01:58:06.769Z,52.51
2018-05-09T02:00:08.435Z,52.42
2018-05-09T02:02:10.371Z,52.70
2018-05-09T02:04:12.152Z,52.70
2018-05-09T02:06:13.757Z,53.16
2018-05-09T02:08:15.307Z,53.16
2018-05-09T02:10:16.975Z,53.45
2018-05-09T02:12:18.674Z,53.57
2018-05-09T02:14:20.401Z,53.74
2018-05-09T02:16:22.096Z,54.02
2018-05-09T02:18:23.852Z,54.50
2018-05-09T02:20:25.552Z,54.22
2018-05-09T02:22:27.531Z,54.12
2018-05-09T02:24:29.147Z,54.69
2018-05-09T02:26:30.659Z,54.69
2018-05-09T02:28:32.206Z,54.69
2018-05-09T02:30:33.870Z,54.79
2018-05-09T02:32:35.694Z,54.89
2018-05-09T02:34:37.319Z,55.56
2018-05-09T02:36:38.793Z,54.86
2018-05-09T02:38:40.316Z,55.46
2018-05-09T02:40:41.895Z,55.34
2018-05-09T02:42:43.833Z,55.34
2018-05-09T02:44:45.536Z,55.24
2018-05-09T02:46:47.093Z,55.53
2018-05-09T02:48:48.681Z,55.37
2018-05-09T02:50:50.424Z,55.63
2018-05-09T02:52:52.096Z,55.63
2018-05-09T02:54:53.837Z,55.91
2018-05-09T02:56:55.392Z,55.63
2018-05-09T02:58:56.869Z,55.24
2018-05-09T03:00:58.338Z,55.34
2018-05-09T03:02:59.839Z,55.44
2018-05-09T03:05:01.328Z,55.44
2018-05-09T03:07:02.814Z,55.63
2018-05-09T03:09:04.347Z,55.91
2018-05-09T03:11:05.820Z,55.91
2018-05-09T03:13:07.289Z,55.63
2018-05-09T03:15:08.709Z,55.53
2018-05-09T03:17:10.129Z,55.63
2018-05-09T03:19:11.643Z,55.73
2018-05-09T03:21:13.075Z,55.24
2018-05-09T03:23:14.496Z,56.40
2018-05-09T03:25:15.931Z,56.59
2018-05-09T03:27:17.394Z,56.40
2018-05-09T03:29:19.057Z,55.91
2018-05-09T03:31:20.600Z,56.01
2018-05-09T03:33:22.191Z,56.49
2018-05-09T03:35:23.726Z,56.11
2018-05-09T03:37:25.406Z,55.91
2018-05-09T03:39:26.932Z,56.98
2018-05-09T03:41:28.434Z,57.36
2018-05-09T03:43:30.195Z,57.26
2018-05-09T03:45:31.825Z,57.75
2018-05-09T03:47:33.375Z,57.84
2018-05-09T03:49:34.863Z,57.93
2018-05-09T03:51:36.381Z,57.75
2018-05-09T03:53:37.910Z,57.26
2018-05-09T03:55:39.407Z,57.93
2018-05-09T03:57:40.930Z,57.75
2018-05-09T03:59:42.486Z,57.84
2018-05-09T04:01:44.041Z,58.22
2018-05-09T04:03:45.555Z,58.77
2018-05-09T04:05:47.215Z,58.77
2018-05-09T04:07:49.092Z,58.39
2018-05-09T04:09:50.912Z,59.06
2018-05-09T04:11:52.431Z,58.10
2018-05-09T04:13:54.014Z,58.67
2018-05-09T04:15:55.568Z,59.44
2018-05-09T04:17:57.115Z,59.06
2018-05-09T04:19:58.660Z,59.73
2018-05-09T04:22:00.504Z,59.73
2018-05-09T04:24:02.340Z,59.73
2018-05-09T04:26:04.044Z,60.11
2018-05-09T04:28:05.902Z,60.21
2018-05-09T04:30:07.410Z,60.40
2018-05-09T04:32:08.937Z,61.17
2018-05-09T04:34:10.478Z,60.40
2018-05-09T04:36:12.158Z,60.88
2018-05-09T04:38:13.641Z,60.21
2018-05-09T04:40:15.173Z,59.83
2018-05-09T04:42:16.680Z,59.73
2018-05-09T04:44:18.767Z,60.40
2018-05-09T04:46:20.580Z,60.21
2018-05-09T04:48:22.337Z,60.50
2018-05-09T04:50:23.921Z,61.17
2018-05-09T04:52:25.501Z,60.69
2018-05-09T04:54:26.958Z,60.50
2018-05-09T04:56:28.489Z,60.78
2018-05-09T04:58:30.041Z,60.50
2018-05-09T05:00:31.679Z,60.11
2018-05-09T05:02:33.181Z,60.31
2018-05-09T05:04:34.724Z,60.31
2018-05-09T05:06:36.565Z,60.40
2018-05-09T05:08:38.126Z,60.69
2018-05-09T05:10:39.679Z,60.50
2018-05-09T05:12:41.181Z,61.17
2018-05-09T05:14:43.013Z,60.53
2018-05-09T05:16:44.532Z,60.43
2018-05-09T05:18:46.036Z,60.43
2018-05-09T05:20:47.553Z,60.24
2018-05-09T05:22:49.060Z,61.11
2018-05-09T05:24:50.593Z,60.43
2018-05-09T05:26:52.086Z,59.86
2018-05-09T05:28:53.588Z,60.53
2018-05-09T05:30:55.232Z,60.43
2018-05-09T05:32:56.917Z,61.49
2018-05-09T05:34:58.513Z,61.30
2018-05-09T05:37:00.293Z,59.89
2018-05-09T05:39:01.925Z,59.31
2018-05-09T05:41:03.889Z,58.95
2018-05-09T05:43:05.527Z,58.47
2018-05-09T05:45:07.119Z,59.24
2018-05-09T05:47:08.718Z,58.70
2018-05-09T05:49:10.367Z,56.60
2018-05-09T05:51:12.202Z,55.38
2018-05-09T05:53:13.954Z,54.18
2018-05-09T05:55:15.716Z,53.41
2018-05-09T05:57:17.408Z,53.61
2018-05-09T05:59:19.056Z,53.22
2018-05-09T06:01:20.594Z,52.25
2018-05-09T06:03:22.117Z,51.29
2018-05-09T06:05:23.686Z,52.64
2018-05-09T06:07:25.519Z,54.35
2018-05-09T06:09:27.076Z,53.87
2018-05-09T06:11:28.565Z,54.25
2018-05-09T06:13:30.046Z,53.39
2018-05-09T06:15:31.563Z,53.99
2018-05-09T06:17:33.106Z,53.41
2018-05-09T06:19:34.599Z,50.86
2018-05-09T06:21:36.083Z,47.58
2018-05-09T06:23:37.617Z,43.21
2018-05-09T06:25:39.120Z,39.34
2018-05-09T06:27:40.642Z,36.49
2018-05-09T06:29:42.159Z,33.83
2018-05-09T06:31:43.695Z,32.70
2018-05-09T06:33:45.220Z,30.66
2018-05-09T06:35:46.734Z,30.27
2018-05-09T06:37:48.336Z,31.75
2018-05-09T06:39:49.735Z,30.51
2018-05-09T06:41:51.248Z,27.61
2018-05-09T06:43:52.768Z,26.83
2018-05-09T06:45:54.238Z,26.16
2018-05-09T06:47:55.751Z,25.79
2018-05-09T06:49:57.259Z,25.12
2018-05-09T06:51:58.758Z,25.32
2018-05-09T06:54:00.281Z,25.01
2018-05-09T06:56:01.787Z,25.21
2018-05-09T06:58:03.277Z,25.02
2018-05-09T07:00:04.862Z,24.63
2018-05-09T07:02:06.279Z,25.78
2018-05-09T07:04:07.849Z,26.53
2018-05-09T07:06:09.441Z,28.53
2018-05-09T07:08:11.026Z,31.22
2018-05-09T07:10:12.744Z,33.43
2018-05-09T07:12:14.369Z,33.44
2018-05-09T07:14:15.915Z,31.23
2018-05-09T07:16:17.610Z,29.50
2018-05-09T07:18:19.213Z,29.13
2018-05-09T07:20:20.782Z,30.45
2018-05-09T07:22:22.510Z,31.98
2018-05-09T07:24:24.065Z,33.70
2018-05-09T07:27:06.727Z,34.55
2018-05-09T07:29:08.181Z,36.67
2018-05-09T07:31:09.684Z,37.43
2018-05-09T07:33:11.309Z,38.87
2018-05-09T07:35:12.779Z,37.78
2018-05-09T07:37:14.229Z,39.61
2018-05-09T07:39:15.735Z,41.14
2018-05-09T07:41:17.201Z,41.51
2018-05-09T07:43:18.760Z,42.92
2018-05-09T07:45:20.575Z,43.60
2018-05-09T07:48:02.088Z,45.71
2018-05-09T07:50:03.670Z,44.91
2018-05-09T07:52:05.114Z,47.14
2018-05-09T07:54:06.527Z,48.57
2018-05-09T07:56:07.982Z,49.17
2018-05-09T07:58:09.423Z,48.47
2018-05-09T08:00:11.011Z,48.76
2018-05-09T08:02:12.494Z,48.08
2018-05-09T08:04:14.014Z,49.05
2018-05-09T08:06:15.676Z,49.15
2018-05-09T08:08:17.253Z,50.12
2018-05-09T08:10:18.826Z,50.12
2018-05-09T08:12:20.360Z,48.18
2018-05-09T08:14:21.861Z,48.79
2018-05-09T08:16:23.332Z,48.79
2018-05-09T08:18:24.883Z,50.62
2018-05-09T08:20:26.432Z,47.81
2018-05-09T08:22:27.969Z,46.97
2018-05-09T08:24:29.520Z,46.87
2018-05-09T08:27:11.949Z,47.19
2018-05-09T08:29:13.382Z,44.64
2018-05-09T08:31:14.824Z,46.41
2018-05-09T08:33:16.270Z,45.83
2018-05-09T08:35:17.705Z,43.79
2018-05-09T08:37:19.516Z,43.82
2018-05-09T08:39:20.964Z,43.23
2018-05-09T08:41:22.812Z,43.54
2018-05-09T08:43:25.019Z,44.32
2018-05-09T08:45:26.433Z,43.06
2018-05-09T08:47:27.884Z,44.03
2018-05-09T08:49:29.427Z,44.73
2018-05-09T08:51:31.396Z,43.27
2018-05-09T08:53:33.023Z,43.88
2018-05-09T08:55:34.675Z,43.68
2018-05-09T08:57:36.296Z,42.23
2018-05-09T08:59:37.987Z,43.80
2018-05-09T09:01:39.624Z,44.29
2018-05-09T09:03:41.315Z,42.18
2018-05-09T09:05:43.958Z,40.42
2018-05-09T09:07:45.612Z,40.33
2018-05-09T09:09:47.681Z,41.01
2018-05-09T09:11:50.257Z,39.16
2018-05-09T09:13:52.513Z,41.01
2018-05-09T09:15:54.058Z,39.47
2018-05-09T09:17:55.513Z,37.92
2018-05-09T09:19:57.033Z,38.89
2018-05-09T09:21:58.495Z,37.64
2018-05-09T09:23:59.930Z,38.13
2018-05-09T09:26:01.375Z,38.64
2018-05-09T09:28:02.822Z,39.70
2018-05-09T09:30:04.290Z,37.76
2018-05-09T09:32:05.753Z,36.59
2018-05-09T09:34:07.194Z,36.49
2018-05-09T09:36:08.651Z,37.27
2018-05-09T09:38:10.084Z,35.13
2018-05-09T09:40:11.530Z,36.49
2018-05-09T09:42:12.969Z,35.71
2018-05-09T09:44:14.418Z,37.19
2018-05-09T09:46:15.863Z,35.44
2018-05-09T09:48:17.305Z,38.87
2018-05-09T09:50:18.747Z,38.01
2018-05-09T09:52:20.191Z,35.47
2018-05-09T09:54:21.640Z,35.47
2018-05-09T09:56:23.080Z,32.94
2018-05-09T09:58:24.766Z,33.92
2018-05-09T10:00:26.204Z,33.25
2018-05-09T10:02:27.636Z,32.86
2018-05-09T10:04:29.084Z,32.28
2018-05-09T10:06:30.748Z,36.37
2018-05-09T10:08:32.213Z,33.54
2018-05-09T10:10:33.758Z,32.97
2018-05-09T10:12:35.392Z,31.51
2018-05-09T10:14:36.810Z,31.12
2018-05-09T10:16:38.249Z,30.63
2018-05-09T10:18:39.696Z,31.99
2018-05-09T10:20:41.136Z,32.58
2018-05-09T10:22:42.651Z,32.39
2018-05-09T10:24:44.102Z,30.44
2018-05-09T10:26:46.240Z,32.99
2018-05-09T10:28:47.697Z,30.84
2018-05-09T10:30:49.674Z,32.60
2018-05-09T10:32:51.271Z,28.68
2018-05-09T10:34:52.790Z,29.17
2018-05-09T10:36:54.374Z,28.58
2018-05-09T10:38:55.877Z,30.24
2018-05-09T10:40:57.397Z,30.16
2018-05-09T10:42:58.900Z,29.08
2018-05-09T10:45:00.459Z,29.77
2018-05-09T10:47:01.992Z,30.45
2018-05-09T10:49:44.448Z,26.73
2018-05-09T10:51:45.895Z,29.07
2018-05-09T10:53:47.346Z,28.97
2018-05-09T10:55:48.788Z,25.85
2018-05-09T10:57:50.238Z,26.64
2018-05-09T10:59:51.703Z,27.62
2018-05-09T11:01:53.147Z,26.64
2018-05-09T11:03:54.725Z,26.64
2018-05-09T11:05:56.215Z,26.35
2018-05-09T11:07:57.751Z,28.40
2018-05-09T11:09:59.262Z,27.13
2018-05-09T11:12:00.717Z,27.52
2018-05-09T11:14:02.247Z,30.66
2018-05-09T11:16:03.778Z,29.88
2018-05-09T11:18:05.322Z,27.73
2018-05-09T11:20:06.860Z,28.03
2018-05-09T11:22:09.129Z,30.09
2018-05-09T11:24:10.697Z,26.67
2018-05-09T11:26:12.287Z,27.75
2018-05-09T11:28:13.856Z,28.23
2018-05-09T11:30:15.507Z,25.70
2018-05-09T11:32:17.099Z,26.07
2018-05-09T11:34:18.710Z,25.59
2018-05-09T11:36:20.381Z,27.83
2018-05-09T11:38:21.982Z,25.78
2018-05-09T11:40:23.529Z,26.66
2018-05-09T11:42:25.111Z,25.20
2018-05-09T11:44:26.859Z,25.49
2018-05-09T11:46:28.811Z,26.64
2018-05-09T11:48:30.336Z,26.86
2018-05-09T11:50:31.912Z,26.15
2018-05-09T11:52:33.865Z,25.96
2018-05-09T11:54:35.348Z,26.15
2018-05-09T11:56:37.007Z,25.98
2018-05-09T11:58:38.796Z,26.86
2018-05-09T12:00:40.307Z,26.66
2018-05-09T12:02:41.892Z,28.12
2018-05-09T12:04:43.396Z,26.56
2018-05-09T12:06:44.950Z,24.32
2018-05-09T12:08:46.520Z,24.69
2018-05-09T12:10:48.165Z,24.69
2018-05-09T12:12:49.649Z,24.21
2018-05-09T12:14:51.201Z,25.67
2018-05-09T12:16:52.791Z,25.96
2018-05-09T12:18:54.337Z,25.18
2018-05-09T12:20:55.915Z,26.93
2018-05-09T12:22:57.426Z,24.69
2018-05-09T12:24:59.082Z,24.01
2018-05-09T12:27:00.623Z,24.30
2018-05-09T12:29:43.088Z,23.51
2018-05-09T12:31:44.530Z,24.10
2018-05-09T12:33:45.982Z,25.96
2018-05-09T12:35:47.428Z,25.18
2018-05-09T12:37:48.877Z,24.01
2018-05-09T12:39:50.324Z,24.99
2018-05-09T12:41:51.765Z,25.47
2018-05-09T12:43:53.222Z,25.96
2018-05-09T12:45:54.669Z,24.89
2018-05-09T12:47:56.115Z,24.99
2018-05-09T12:49:57.561Z,25.67
2018-05-09T12:51:59.009Z,25.76
2018-05-09T12:54:00.452Z,24.11
2018-05-09T12:56:02.046Z,25.59
2018-05-09T12:58:03.489Z,26.46
2018-05-09T13:00:04.937Z,27.05
2018-05-09T13:02:06.382Z,25.20
2018-05-09T13:04:07.831Z,25.68
2018-05-09T13:06:09.275Z,26.95
2018-05-09T13:08:10.804Z,26.76
2018-05-09T13:10:12.249Z,27.73
2018-05-09T13:12:13.692Z,26.17
2018-05-09T13:14:15.164Z,25.68
2018-05-09T13:16:16.656Z,26.76
2018-05-09T13:18:18.102Z,26.17
2018-05-09T13:20:19.553Z,26.66
2018-05-09T13:22:21.042Z,26.66
2018-05-09T13:24:22.774Z,26.27
2018-05-09T13:26:24.640Z,27.44
2018-05-09T13:28:26.440Z,27.06
2018-05-09T13:30:27.981Z,27.15
2018-05-09T13:32:29.574Z,26.17
2018-05-09T13:34:31.135Z,27.25
2018-05-09T13:36:32.861Z,26.17
2018-05-09T13:38:34.386Z,26.93
2018-05-09T13:40:36.176Z,26.54
2018-05-09T13:42:38.054Z,26.74
2018-05-09T13:44:39.977Z,25.37
2018-05-09T13:46:41.584Z,26.27
2018-05-09T13:48:43.110Z,28.71
2018-05-09T13:50:44.664Z,26.66
2018-05-09T13:52:46.267Z,26.17
2018-05-09T13:54:47.871Z,26.66
2018-05-09T13:56:49.485Z,26.86
2018-05-09T13:58:51.221Z,26.07
2018-05-09T14:00:52.842Z,26.46
2018-05-09T14:02:54.454Z,26.76
2018-05-09T14:04:55.955Z,26.17
2018-05-09T14:06:57.452Z,26.46
2018-05-09T14:09:39.894Z,27.65
2018-05-09T14:11:41.362Z,26.77
2018-05-09T14:13:42.789Z,26.18
2018-05-09T14:15:44.236Z,25.20
2018-05-09T14:17:45.688Z,25.96
2018-05-09T14:19:47.154Z,26.35
2018-05-09T14:21:48.599Z,25.86
2018-05-09T14:23:50.056Z,26.84
2018-05-09T14:25:51.688Z,27.64
2018-05-09T14:27:53.126Z,27.93
2018-05-09T14:29:54.569Z,27.15
2018-05-09T14:31:56.142Z,26.86
2018-05-09T14:33:57.787Z,27.54
2018-05-09T14:35:59.236Z,26.17
2018-05-09T14:38:00.673Z,26.76
2018-05-09T14:40:02.142Z,26.66
2018-05-09T14:42:03.626Z,26.95
2018-05-09T14:44:05.202Z,26.64
2018-05-09T14:46:06.858Z,26.35
2018-05-09T14:48:08.425Z,27.12
2018-05-09T14:50:50.864Z,27.33
2018-05-09T14:52:55.941Z,26.84
2018-05-09T14:54:57.340Z,27.33
2018-05-09T14:56:59.715Z,27.03
2018-05-09T14:59:01.828Z,26.14
2018-05-09T15:01:03.717Z,26.45
2018-05-09T15:03:06.121Z,26.93
2018-05-09T15:05:07.606Z,27.42
2018-05-09T15:07:09.046Z,27.52
2018-05-09T15:09:10.500Z,27.42
2018-05-09T15:11:11.945Z,27.62
2018-05-09T15:13:13.389Z,27.91
2018-05-09T15:15:14.835Z,28.61
2018-05-09T15:17:16.287Z,28.22
2018-05-09T15:19:17.729Z,28.50
2018-05-09T15:21:19.336Z,27.52
2018-05-09T15:23:20.889Z,28.19
2018-05-09T15:25:22.405Z,28.47
2018-05-09T15:27:23.797Z,29.35
2018-05-09T15:29:25.216Z,29.04
2018-05-09T15:31:26.668Z,29.53
2018-05-09T15:33:28.108Z,30.51
2018-05-09T15:35:29.554Z,30.00
2018-05-09T15:37:31.016Z,30.00
2018-05-09T15:39:32.604Z,31.76
2018-05-09T15:41:34.827Z,30.96
2018-05-09T15:43:37.077Z,32.23
2018-05-09T15:45:38.589Z,32.13
2018-05-09T15:47:40.047Z,31.93
2018-05-09T15:49:41.499Z,31.35
2018-05-09T15:51:42.928Z,32.91
2018-05-09T15:53:44.371Z,32.42
2018-05-09T15:55:45.811Z,31.54
2018-05-09T15:57:47.254Z,31.64
2018-05-09T15:59:48.715Z,32.13
2018-05-09T16:01:50.167Z,31.64
2018-05-09T16:03:52.193Z,32.13
2018-05-09T16:05:53.695Z,31.45
2018-05-09T16:07:55.153Z,32.32
2018-05-09T16:09:57.316Z,32.13
2018-05-09T16:11:59.260Z,31.93
2018-05-09T16:14:01.243Z,31.84
2018-05-09T16:16:02.941Z,31.35
2018-05-09T16:18:04.400Z,31.54
2018-05-09T16:20:06.008Z,31.45
2018-05-09T16:22:08.068Z,31.66
2018-05-09T16:24:09.605Z,32.15
2018-05-09T16:26:11.145Z,31.37
2018-05-09T16:28:12.600Z,32.24
2018-05-09T16:30:14.107Z,31.56
2018-05-09T16:32:15.584Z,30.68
2018-05-09T16:34:17.055Z,31.17
2018-05-09T16:36:18.956Z,32.63
2018-05-09T16:39:01.984Z,30.88
2018-05-09T16:41:03.500Z,30.88
2018-05-09T16:43:05.429Z,29.91
2018-05-09T16:45:07.341Z,30.88
2018-05-09T16:47:08.916Z,30.98
2018-05-09T16:49:10.725Z,31.66
2018-05-09T16:51:12.590Z,31.37
2018-05-09T16:53:14.331Z,31.27
2018-05-09T16:55:15.966Z,31.06
2018-05-09T16:57:17.422Z,32.15
2018-05-09T16:59:18.951Z,32.24
2018-05-09T17:01:20.544Z,32.32
2018-05-09T17:03:22.050Z,32.24
2018-05-09T17:05:23.715Z,31.54
2018-05-09T17:07:25.429Z,31.93
2018-05-09T17:09:27.014Z,32.62
2018-05-09T17:11:28.491Z,32.13
2018-05-09T17:13:30.423Z,35.34
2018-05-09T17:15:31.984Z,33.78
2018-05-09T17:17:33.858Z,33.01
2018-05-09T17:19:35.473Z,32.89
2018-05-09T17:21:37.592Z,33.09
2018-05-09T17:23:39.422Z,32.89
2018-05-09T17:25:40.969Z,32.89
2018-05-09T17:27:42.826Z,33.48
2018-05-09T17:29:44.551Z,35.03
2018-05-09T17:31:45.996Z,34.16
2018-05-09T17:33:47.775Z,36.30
2018-05-09T17:35:49.527Z,34.06
2018-05-09T17:37:51.431Z,34.55
2018-05-09T17:39:53.039Z,36.40
2018-05-09T17:41:54.950Z,34.74
2018-05-09T17:43:56.742Z,38.13
2018-05-09T17:45:58.516Z,37.74
2018-05-09T17:48:00.426Z,35.02
2018-05-09T17:50:04.281Z,36.28
2018-05-09T17:52:06.212Z,38.71
2018-05-09T17:54:08.068Z,38.52
2018-05-09T17:56:09.648Z,37.26
2018-05-09T17:58:11.506Z,36.07
2018-05-09T18:00:13.314Z,37.62
2018-05-09T18:02:15.059Z,37.84
2018-05-09T18:04:16.866Z,39.00
2018-05-09T18:06:18.477Z,37.34
2018-05-09T18:08:20.320Z,36.26
2018-05-09T18:10:22.201Z,36.26
2018-05-09T18:12:23.989Z,36.26
2018-05-09T18:14:25.785Z,37.72
2018-05-09T18:16:27.570Z,38.50
2018-05-09T18:18:29.391Z,39.67
2018-05-09T18:20:31.193Z,37.82
2018-05-09T18:22:33.014Z,37.70
2018-05-09T18:24:34.677Z,40.33
2018-05-09T18:26:36.564Z,38.19
2018-05-09T18:28:38.160Z,37.60
2018-05-09T18:30:40.111Z,40.81
2018-05-09T18:32:41.742Z,37.70
2018-05-09T18:34:43.576Z,37.90
2018-05-09T18:36:45.453Z,37.60
2018-05-09T18:38:47.065Z,39.16
2018-05-09T18:40:48.852Z,40.41
2018-05-09T18:42:50.825Z,38.67
2018-05-09T18:44:52.573Z,39.55
2018-05-09T18:46:54.183Z,40.03
2018-05-09T18:48:55.941Z,41.67
2018-05-09T18:50:57.556Z,41.96
2018-05-09T18:52:59.563Z,41.57
2018-05-09T18:55:01.335Z,41.67
2018-05-09T18:57:03.204Z,42.71
2018-05-09T18:59:04.850Z,41.94
2018-05-09T19:01:06.469Z,41.74
2018-05-09T19:03:08.378Z,41.84
2018-05-09T19:05:09.959Z,41.26
2018-05-09T19:07:11.821Z,41.74
2018-05-09T19:09:13.602Z,41.06
2018-05-09T19:11:15.507Z,42.33
2018-05-09T19:13:17.290Z,42.52
2018-05-09T19:15:19.136Z,42.33
2018-05-09T19:17:20.911Z,43.01
2018-05-09T19:19:22.534Z,42.71
2018-05-09T19:21:24.470Z,43.10
2018-05-09T19:23:26.335Z,43.20
2018-05-09T19:25:28.101Z,43.30
2018-05-09T19:27:29.663Z,43.57
2018-05-09T19:29:31.484Z,42.99
2018-05-09T19:31:33.298Z,43.47
2018-05-09T19:33:35.334Z,44.05
2018-05-09T19:35:37.188Z,45.24
2018-05-09T19:37:39.074Z,44.05
2018-05-09T19:39:40.915Z,43.66
2018-05-09T19:41:42.713Z,44.73
2018-05-09T19:43:44.556Z,45.41
2018-05-09T19:45:46.185Z,45.02
2018-05-09T19:47:48.968Z,46.48
2018-05-09T19:49:50.891Z,45.12
2018-05-09T19:51:52.473Z,45.51
2018-05-09T19:53:54.237Z,46.28
2018-05-09T19:55:56.175Z,46.38
2018-05-09T19:57:58.005Z,46.19
2018-05-09T19:59:59.828Z,45.68
2018-05-09T20:02:01.795Z,47.13
2018-05-09T20:04:03.379Z,46.65
2018-05-09T20:06:05.162Z,46.75
2018-05-09T20:08:06.839Z,47.91
2018-05-09T20:10:08.477Z,46.94
2018-05-09T20:12:09.973Z,46.94
2018-05-09T20:14:11.636Z,47.03
2018-05-09T20:16:13.545Z,45.00
2018-05-09T20:18:15.135Z,47.40
2018-05-09T20:20:16.723Z,47.20
2018-05-09T20:22:19.381Z,47.60
2018-05-09T20:24:21.439Z,47.50
2018-05-09T20:26:23.336Z,48.18
2018-05-09T20:28:25.113Z,49.05
2018-05-09T20:30:26.904Z,49.24
2018-05-09T20:32:28.631Z,49.63
2018-05-09T20:34:30.411Z,50.31
2018-05-09T20:36:32.149Z,50.21
2018-05-09T20:38:33.954Z,50.57
2018-05-09T20:40:35.705Z,49.99
2018-05-09T20:42:37.692Z,51.16
2018-05-09T20:44:39.571Z,51.16
2018-05-09T20:46:41.109Z,51.16
2018-05-09T20:48:42.784Z,51.06
2018-05-09T20:50:44.384Z,50.77
2018-05-09T20:52:46.263Z,51.25
2018-05-09T20:54:48.056Z,51.25
2018-05-09T20:56:49.683Z,51.16
2018-05-09T20:58:51.813Z,51.54
2018-05-09T21:00:53.660Z,51.16
2018-05-09T21:02:55.693Z,51.16
2018-05-09T21:04:57.286Z,51.45
2018-05-09T21:06:59.271Z,51.13
2018-05-09T21:09:01.225Z,51.13
2018-05-09T21:11:02.787Z,51.23
2018-05-09T21:13:04.575Z,51.52
2018-05-09T21:15:06.607Z,52.39
2018-05-09T21:17:08.314Z,52.29
2018-05-09T21:19:10.100Z,52.39
2018-05-09T21:21:12.041Z,52.39
2018-05-09T21:23:13.891Z,50.65
2018-05-09T21:25:15.407Z,52.58
2018-05-09T21:27:17.074Z,52.39
2018-05-09T21:29:18.755Z,52.87
2018-05-09T21:31:20.233Z,52.49
2018-05-09T21:33:21.801Z,53.45
2018-05-09T21:35:23.629Z,53.65
2018-05-09T21:37:25.139Z,53.14
2018-05-09T21:39:26.848Z,52.49
2018-05-09T21:41:28.727Z,53.63
2018-05-09T21:43:30.589Z,53.43
2018-05-09T21:45:32.446Z,53.23
2018-05-09T21:47:34.198Z,54.11
2018-05-09T21:49:35.972Z,53.04
2018-05-09T21:51:37.845Z,52.66
2018-05-09T21:53:39.367Z,52.17
2018-05-09T21:55:41.009Z,53.04
2018-05-09T21:57:42.799Z,52.27
2018-05-09T21:59:44.557Z,53.04
2018-05-09T22:01:46.227Z,53.43
2018-05-09T22:03:48.014Z,52.66
2018-05-09T22:05:49.590Z,51.40
2018-05-09T22:07:51.185Z,52.56
2018-05-09T22:09:52.766Z,51.01
2018-05-09T22:11:54.622Z,52.82
2018-05-09T22:13:56.161Z,51.76
2018-05-09T22:15:58.157Z,52.53
2018-05-09T22:17:59.889Z,52.34
2018-05-09T22:20:01.793Z,52.34
2018-05-09T22:22:03.683Z,53.11
2018-05-09T22:24:05.581Z,53.41
2018-05-09T22:26:07.448Z,53.41
2018-05-09T22:28:09.056Z,53.41
2018-05-09T22:30:11.020Z,52.44
2018-05-09T22:32:12.748Z,52.05
2018-05-09T22:34:14.399Z,53.59
2018-05-09T22:36:18.090Z,53.69
2018-05-09T22:39:01.175Z,52.44
2018-05-09T22:41:02.601Z,53.57
2018-05-09T22:43:04.041Z,52.31
2018-05-09T22:45:05.761Z,53.09
2018-05-09T22:47:07.412Z,54.53
2018-05-09T22:49:09.077Z,54.05
2018-05-09T22:51:10.657Z,53.86
2018-05-09T22:53:12.244Z,54.53
2018-05-09T22:55:14.088Z,54.44
2018-05-09T22:57:15.759Z,54.80
2018-05-09T22:59:17.506Z,53.55
2018-05-09T23:01:18.982Z,54.51
2018-05-09T23:03:20.853Z,54.32
2018-05-09T23:05:22.664Z,54.90
2018-05-09T23:07:24.473Z,54.90
2018-05-09T23:09:25.929Z,54.13
2018-05-09T23:11:27.472Z,54.80
2018-05-09T23:13:29.259Z,54.61
2018-05-09T23:15:31.294Z,54.80
2018-05-09T23:17:32.913Z,54.61
2018-05-09T23:19:34.452Z,54.87
2018-05-09T23:21:36.381Z,55.57
2018-05-09T23:23:37.927Z,55.09
2018-05-09T23:25:39.408Z,55.26
2018-05-09T23:27:41.352Z,55.83
2018-05-09T23:29:42.885Z,55.93
2018-05-09T23:31:44.748Z,56.10
2018-05-09T23:33:46.687Z,56.77
2018-05-09T23:35:48.541Z,57.54
2018-05-09T23:37:50.474Z,57.45
2018-05-09T23:39:52.396Z,57.45
2018-05-09T23:41:53.932Z,57.45
2018-05-09T23:43:55.915Z,57.64
2018-05-09T23:45:57.549Z,57.52
2018-05-09T23:47:59.478Z,57.93
2018-05-09T23:50:01.580Z,58.48
2018-05-09T23:52:03.521Z,58.97
2018-05-09T23:54:05.542Z,59.06
2018-05-09T23:56:07.059Z,59.06
2018-05-09T23:58:08.924Z,58.87
